Time;durP1;ratioP1;P1;durP2;ratioP2;P2;SDS_P1;SDS_P2;PMS_P1;PMS_P2;Temp;Humidity;BMP_temperature;BMP_pressure;BME280_temperature;BME280_humidity;BME280_pressure;Samples;Min_cycle;Max_cycle;Signal;HPM_P1;HPM_P2
2021/12/07 00:01:14;;;;;;;6.15;4.75;;;;;;;-0.68;100.00;95080.13;5031342;28;24441;-70
2021/12/07 00:03:41;;;;;;;5.20;4.70;;;;;;;-0.53;100.00;95072.88;5031246;28;24416;-71
2021/12/07 00:06:08;;;;;;;5.70;4.70;;;;;;;-0.60;100.00;95075.63;5029931;28;24408;-70
2021/12/07 00:08:35;;;;;;;4.93;4.40;;;;;;;-0.63;100.00;95079.13;5031362;28;24489;-70
2021/12/07 00:11:02;;;;;;;5.07;4.53;;;;;;;-0.58;100.00;95084.91;5031204;28;24419;-71
2021/12/07 00:13:33;;;;;;;5.35;4.85;;;;;;;-0.67;100.00;95074.16;5031090;28;24789;-71
2021/12/07 00:16:00;;;;;;;4.78;4.30;;;;;;;-0.66;100.00;95081.75;5030660;28;24440;-71
2021/12/07 00:18:26;;;;;;;6.53;5.05;;;;;;;-0.73;100.00;95081.09;5030706;28;24442;-70
2021/12/07 00:20:53;;;;;;;6.15;4.55;;;;;;;-0.70;100.00;95080.19;5030812;28;24419;-70
2021/12/07 00:23:19;;;;;;;4.68;4.05;;;;;;;-0.71;100.00;95078.50;5031046;28;24477;-72
2021/12/07 00:25:46;;;;;;;4.70;4.20;;;;;;;-0.77;100.00;95077.00;5030671;28;24424;-71
2021/12/07 00:28:12;;;;;;;5.35;3.97;;;;;;;-0.70;100.00;95080.19;5030888;28;24424;-71
2021/12/07 00:30:40;;;;;;;5.03;4.53;;;;;;;-0.67;100.00;95079.25;5030756;28;24968;-72
2021/12/07 00:33:16;;;;;;;4.43;3.92;;;;;;;-0.70;100.00;95071.69;5030682;28;24423;-71
2021/12/07 00:35:44;;;;;;;4.30;3.90;;;;;;;-0.77;100.00;95082.06;5030658;28;24448;-70
2021/12/07 00:38:13;;;;;;;3.67;3.35;;;;;;;-0.82;100.00;95070.38;5030775;28;24424;-70
2021/12/07 00:40:41;;;;;;;3.65;3.35;;;;;;;-0.83;100.00;95076.34;5030812;28;24408;-70
2021/12/07 00:43:07;;;;;;;3.70;3.40;;;;;;;-0.81;100.00;95079.69;5030674;28;24424;-72
2021/12/07 00:45:35;;;;;;;4.00;3.60;;;;;;;-0.84;100.00;95080.59;5030194;28;24408;-71
2021/12/07 00:48:05;;;;;;;4.65;3.75;;;;;;;-0.87;100.00;95082.38;5030602;28;24427;-71
2021/12/07 00:50:34;;;;;;;3.65;3.35;;;;;;;-0.85;100.00;95085.72;5030479;28;25050;-70
2021/12/07 00:53:02;;;;;;;3.50;3.20;;;;;;;-0.78;100.00;95085.50;5030494;28;24421;-71
2021/12/07 00:55:32;;;;;;;4.20;3.80;;;;;;;-0.82;100.00;95083.91;5030342;28;24983;-70
2021/12/07 00:58:00;;;;;;;5.05;4.55;;;;;;;-0.87;100.00;95072.22;5030137;28;24428;-71
2021/12/07 01:00:31;;;;;;;4.30;3.70;;;;;;;-0.86;100.00;95077.25;5030482;28;24416;-70
2021/12/07 01:02:58;;;;;;;4.35;3.95;;;;;;;-0.80;100.00;95083.88;5030465;28;24786;-71
2021/12/07 01:05:31;;;;;;;5.28;3.50;;;;;;;-0.82;100.00;95073.72;5030185;28;24466;-71
2021/12/07 01:08:16;;;;;;;4.10;3.67;;;;;;;-0.84;100.00;95080.59;5030200;28;24968;-72
2021/12/07 01:24:42;;;;;;;3.38;3.08;;;;;;;-0.85;100.00;95068.75;5034142;28;24407;-71
2021/12/07 01:27:12;;;;;;;3.20;2.85;;;;;;;-0.71;100.00;95064.97;5033510;28;24420;-71
2021/12/07 01:29:41;;;;;;;2.40;2.20;;;;;;;-0.73;100.00;95065.03;5034328;28;24451;-70
2021/12/07 01:32:18;;;;;;;3.00;2.53;;;;;;;-0.74;100.00;95060.81;5034205;28;24422;-70
2021/12/07 01:35:26;;;;;;;3.30;2.55;;;;;;;-0.66;100.00;95060.59;5033957;28;24964;-70
2021/12/07 01:38:06;;;;;;;2.08;1.88;;;;;;;-0.69;100.00;95065.75;5034006;28;24566;-70
2021/12/07 01:40:49;;;;;;;1.50;1.40;;;;;;;-0.67;100.00;95058.91;5034069;28;24431;-70
2021/12/07 01:51:48;;;;;;;1.48;1.20;;;;;;;-0.55;100.00;95076.34;5033756;28;24426;-71
2021/12/07 01:59:49;;;;;;;2.88;2.10;;;;;;;-0.61;100.00;95090.06;5033594;28;24403;-70
2021/12/07 02:02:18;;;;;;;1.83;1.63;;;;;;;-0.57;100.00;95096.72;5033569;28;24534;-71
2021/12/07 02:04:46;;;;;;;2.15;1.80;;;;;;;-0.53;100.00;95095.75;5033295;28;24999;-72
2021/12/07 02:07:13;;;;;;;2.40;2.08;;;;;;;-0.51;100.00;95101.63;5033321;28;24788;-71
2021/12/07 02:09:45;;;;;;;3.08;2.03;;;;;;;-0.45;100.00;95098.06;5033370;28;24778;-70
2021/12/07 02:12:13;;;;;;;2.40;1.92;;;;;;;-0.42;100.00;95103.06;5033448;28;24431;-70
2021/12/07 02:14:41;;;;;;;3.70;2.10;;;;;;;-0.41;100.00;95091.16;5033288;28;24511;-72
2021/12/07 02:17:09;;;;;;;1.88;1.00;;;;;;;-0.36;100.00;95099.50;5032838;28;24865;-72
2021/12/07 02:19:37;;;;;;;1.67;1.02;;;;;;;-0.37;100.00;95102.91;5033382;28;24424;-72
2021/12/07 02:22:05;;;;;;;1.50;1.07;;;;;;;-0.38;100.00;95103.78;5033161;28;24946;-71
2021/12/07 02:24:31;;;;;;;0.93;0.82;;;;;;;-0.31;100.00;95108.66;5033193;28;24419;-70
2021/12/07 02:26:58;;;;;;;1.45;1.17;;;;;;;-0.26;100.00;95106.81;5032768;28;24546;-70
2021/12/07 02:29:26;;;;;;;1.38;1.00;;;;;;;-0.28;100.00;95105.19;5032172;28;24431;-70
2021/12/07 02:31:56;;;;;;;1.20;0.93;;;;;;;-0.30;100.00;95102.69;5032843;28;24439;-71
2021/12/07 02:34:24;;;;;;;1.15;1.00;;;;;;;-0.25;100.00;95111.00;5033186;28;24430;-70
2021/12/07 02:36:51;;;;;;;1.02;0.90;;;;;;;-0.17;100.00;95122.66;5032559;28;24920;-72
2021/12/07 02:39:19;;;;;;;1.40;1.20;;;;;;;-0.19;100.00;95116.78;5032950;28;24526;-71
2021/12/07 02:41:45;;;;;;;1.45;1.20;;;;;;;-0.19;100.00;95117.59;5032762;28;24427;-70
2021/12/07 02:44:13;;;;;;;1.67;1.15;;;;;;;-0.19;100.00;95119.31;5032654;28;24427;-70
2021/12/07 02:46:40;;;;;;;1.15;1.00;;;;;;;-0.22;100.00;95109.22;5032506;28;24434;-71
2021/12/07 02:49:08;;;;;;;4.10;1.80;;;;;;;-0.26;100.00;95122.09;5032854;28;24431;-70
2021/12/07 02:51:35;;;;;;;6.00;1.70;;;;;;;-0.22;100.00;95111.78;5032815;28;24490;-70
2021/12/07 02:54:02;;;;;;;2.50;1.40;;;;;;;-0.21;100.00;95108.38;5032638;28;24422;-71
2021/12/07 02:56:30;;;;;;;2.83;1.60;;;;;;;-0.27;100.00;95115.31;5032267;28;24797;-70
2021/12/07 02:59:01;;;;;;;1.23;1.10;;;;;;;-0.29;100.00;95118.78;5032719;28;24435;-70
2021/12/07 03:01:31;;;;;;;1.58;1.05;;;;;;;-0.26;100.00;95104.28;5032388;28;24972;-72
2021/12/07 03:04:02;;;;;;;1.47;0.90;;;;;;;-0.23;100.00;95110.94;5032514;28;24719;-72
2021/12/07 03:06:47;;;;;;;1.48;0.98;;;;;;;-0.16;100.00;95116.69;5032413;28;24477;-70
2021/12/07 03:09:42;;;;;;;1.35;0.85;;;;;;;-0.14;100.00;95128.50;5032170;28;24988;-69
2021/12/07 03:26:01;;;;;;;3.67;1.00;;;;;;;0.82;100.00;95121.91;5031574;28;24969;-71
2021/12/07 03:28:31;;;;;;;2.63;0.93;;;;;;;0.82;100.00;95118.53;5032053;28;25063;-70
2021/12/07 03:30:57;;;;;;;6.03;1.10;;;;;;;0.76;100.00;95118.75;5031958;28;24419;-70
2021/12/07 03:33:24;;;;;;;3.20;1.30;;;;;;;0.77;100.00;95125.50;5031956;28;24426;-70
2021/12/07 03:35:50;;;;;;;2.80;1.00;;;;;;;0.71;100.00;95124.84;5031350;28;24840;-69
2021/12/07 03:38:17;;;;;;;1.90;0.80;;;;;;;0.68;100.00;95132.56;5031678;28;24427;-70
2021/12/07 03:40:44;;;;;;;2.35;1.10;;;;;;;0.63;100.00;95129.38;5031494;28;24957;-70
2021/12/07 03:43:12;;;;;;;2.70;0.80;;;;;;;0.62;100.00;95159.97;5031606;28;24470;-69
2021/12/07 03:45:40;;;;;;;1.92;0.98;;;;;;;0.66;100.00;95154.72;5031351;28;24513;-69
2021/12/07 03:48:08;;;;;;;2.45;0.98;;;;;;;0.83;100.00;95146.50;5031506;28;24411;-69
2021/12/07 03:50:36;;;;;;;4.30;1.00;;;;;;;0.80;100.00;95146.59;5031541;28;24466;-69
2021/12/07 03:53:03;;;;;;;1.60;0.80;;;;;;;0.79;100.00;95137.31;5031257;28;24424;-70
2021/12/07 03:55:30;;;;;;;2.80;1.00;;;;;;;0.73;100.00;95153.63;5031258;28;24473;-70
2021/12/07 03:57:57;;;;;;;4.40;1.10;;;;;;;0.84;100.00;95147.34;5031047;28;24822;-70
2021/12/07 04:00:26;;;;;;;3.70;1.25;;;;;;;1.04;100.00;95152.59;5031415;28;24419;-70
2021/12/07 04:02:55;;;;;;;5.43;1.90;;;;;;;1.12;100.00;95154.84;5031347;28;24419;-70
2021/12/07 04:05:23;;;;;;;5.65;1.30;;;;;;;1.29;100.00;95159.34;5030887;28;24416;-70
2021/12/07 04:07:51;;;;;;;4.78;1.30;;;;;;;1.29;100.00;95159.34;5030877;28;24426;-70
2021/12/07 04:10:20;;;;;;;5.00;1.57;;;;;;;1.30;100.00;95168.66;5031048;28;24980;-70
2021/12/07 04:12:46;;;;;;;3.95;1.23;;;;;;;1.32;100.00;95166.88;5031175;28;24416;-70
2021/12/07 04:15:16;;;;;;;5.85;1.42;;;;;;;1.35;100.00;95171.88;5030869;28;24419;-70
2021/12/07 04:17:42;;;;;;;2.50;1.00;;;;;;;1.28;100.00;95183.19;5030889;28;24463;-70
2021/12/07 04:20:13;;;;;;;4.72;1.38;;;;;;;1.31;100.00;95167.78;5030618;28;24431;-70
2021/12/07 04:22:39;;;;;;;4.47;1.27;;;;;;;1.15;100.00;95178.53;5031069;28;24439;-70
2021/12/07 04:25:08;;;;;;;3.28;1.27;;;;;;;1.12;100.00;95170.16;5030664;28;24744;-70
2021/12/07 04:27:38;;;;;;;3.53;1.33;;;;;;;1.23;100.00;95179.97;5030881;28;24551;-70
2021/12/07 04:30:08;;;;;;;3.80;1.27;;;;;;;1.29;100.00;95178.03;5030774;28;24498;-70
2021/12/07 04:32:35;;;;;;;3.53;1.50;;;;;;;1.26;100.00;95183.25;5030726;28;24423;-70
2021/12/07 04:35:01;;;;;;;5.03;1.30;;;;;;;1.22;100.00;95189.31;5030351;28;24469;-70
2021/12/07 04:37:29;;;;;;;4.80;1.98;;;;;;;1.17;100.00;95186.13;5029432;28;24463;-70
2021/12/07 04:39:56;;;;;;;8.23;1.60;;;;;;;1.19;100.00;95194.56;5030621;28;24428;-70
2021/12/07 04:42:24;;;;;;;5.30;1.67;;;;;;;1.16;100.00;95205.69;5030482;28;24486;-70
2021/12/07 04:44:54;;;;;;;4.97;1.30;;;;;;;1.19;100.00;95203.03;5030465;28;24439;-70
2021/12/07 04:47:27;;;;;;;5.85;1.65;;;;;;;1.19;100.00;95197.13;5030071;28;24527;-71
2021/12/07 04:50:18;;;;;;;3.90;1.60;;;;;;;1.22;100.00;95209.72;5030545;28;24523;-70
2021/12/07 04:58:23;;;;;;;5.55;1.60;;;;;;;1.29;100.00;95220.56;5010822;28;24444;-70
2021/12/07 05:00:50;;;;;;;3.38;1.58;;;;;;;1.24;100.00;95232.66;5011501;28;24424;-70
2021/12/07 05:03:17;;;;;;;4.68;1.65;;;;;;;1.19;100.00;95237.94;5030585;28;24439;-70
2021/12/07 05:05:47;;;;;;;10.03;2.33;;;;;;;1.12;100.00;95247.50;5030500;28;24440;-70
2021/12/07 05:08:18;;;;;;;6.30;1.70;;;;;;;1.21;100.00;95233.59;5030153;28;24434;-70
2021/12/07 05:11:21;;;;;;;5.28;1.40;;;;;;;1.38;100.00;95244.03;5030591;28;24474;-70
2021/12/07 05:13:55;;;;;;;5.00;1.57;;;;;;;1.27;100.00;95251.25;5030133;28;24777;-70
2021/12/07 05:16:44;;;;;;;4.32;1.70;;;;;;;1.24;100.00;95255.63;5029945;28;24427;-70
2021/12/07 05:24:54;;;;;;;3.53;1.73;;;;;;;1.14;100.00;95257.63;5029719;28;24485;-70
2021/12/07 05:38:18;;;;;;;6.90;4.10;;;;;;;1.12;100.00;95272.19;5029953;28;24860;-70
2021/12/07 05:40:46;;;;;;;10.48;2.10;;;;;;;1.19;100.00;95284.66;5030118;28;24868;-71
2021/12/07 05:43:13;;;;;;;7.20;4.00;;;;;;;1.18;100.00;95295.72;5029907;28;24778;-71
2021/12/07 05:45:40;;;;;;;14.10;7.53;;;;;;;1.11;100.00;95291.75;5029605;28;24416;-71
2021/12/07 05:48:08;;;;;;;7.40;2.65;;;;;;;1.17;100.00;95295.78;5029863;28;24993;-71
2021/12/07 05:50:38;;;;;;;5.25;1.88;;;;;;;1.22;100.00;95304.13;5029990;28;24416;-71
2021/12/07 05:53:07;;;;;;;6.50;2.72;;;;;;;1.21;100.00;95305.00;5029936;28;24415;-71
2021/12/07 05:55:33;;;;;;;4.20;1.75;;;;;;;1.12;100.00;95311.25;5029960;28;24415;-70
2021/12/07 05:58:01;;;;;;;7.82;4.32;;;;;;;1.05;100.00;95317.44;5029616;28;24464;-70
2021/12/07 06:00:32;;;;;;;6.15;1.80;;;;;;;1.06;100.00;95319.09;5029872;28;24430;-71
2021/12/07 06:03:01;;;;;;;6.13;1.92;;;;;;;1.13;100.00;95325.66;5029866;28;24940;-70
2021/12/07 06:05:29;;;;;;;5.70;1.70;;;;;;;1.19;100.00;95328.03;5032619;28;24411;-70
2021/12/07 06:07:56;;;;;;;5.68;1.70;;;;;;;1.23;100.00;95327.94;5033354;28;24420;-70
2021/12/07 06:10:24;;;;;;;7.70;1.77;;;;;;;1.26;100.00;95323.56;5033365;28;24423;-70
2021/12/07 06:12:50;;;;;;;4.57;1.40;;;;;;;1.22;100.00;95329.63;5033035;28;24431;-70
2021/12/07 06:15:20;;;;;;;9.65;2.10;;;;;;;1.16;100.00;95325.56;5033135;28;24828;-70
2021/12/07 06:17:47;;;;;;;6.53;2.05;;;;;;;1.18;100.00;95323.78;5033188;28;24481;-71
2021/12/07 06:20:14;;;;;;;7.68;1.83;;;;;;;1.20;100.00;95332.25;5033146;28;24466;-70
2021/12/07 06:22:41;;;;;;;4.90;1.67;;;;;;;1.17;100.00;95329.78;5033151;28;24478;-71
2021/12/07 06:25:08;;;;;;;9.18;2.10;;;;;;;1.23;100.00;95333.03;5032705;28;24774;-71
2021/12/07 06:27:35;;;;;;;6.05;1.75;;;;;;;1.25;100.00;95332.06;5033148;28;24427;-70
2021/12/07 06:30:01;;;;;;;9.90;1.75;;;;;;;1.18;100.00;95328.88;5033232;28;24462;-70
2021/12/07 06:32:29;;;;;;;11.40;2.40;;;;;;;1.18;100.00;95336.53;5033042;28;24422;-70
2021/12/07 06:34:56;;;;;;;4.78;1.70;;;;;;;1.20;100.00;95342.44;5032740;28;24542;-70
2021/12/07 06:37:22;;;;;;;5.43;1.77;;;;;;;1.23;100.00;95343.25;5032542;28;24451;-70
2021/12/07 06:39:48;;;;;;;13.00;2.38;;;;;;;1.23;100.00;95346.63;5032696;28;24426;-70
2021/12/07 06:42:15;;;;;;;5.70;1.77;;;;;;;1.21;100.00;95343.28;5028548;28;24444;-72
2021/12/07 06:44:41;;;;;;;4.70;1.65;;;;;;;1.24;100.00;95353.38;5030769;28;25027;-71
2021/12/07 06:47:08;;;;;;;6.95;1.90;;;;;;;1.24;100.00;95350.81;5032587;28;25016;-70
2021/12/07 06:49:37;;;;;;;8.32;2.47;;;;;;;1.17;100.00;95357.84;5052138;28;24427;-71
2021/12/07 06:52:04;;;;;;;9.55;1.90;;;;;;;1.17;100.00;95351.91;5052360;28;24778;-71
2021/12/07 06:54:31;;;;;;;6.15;2.20;;;;;;;1.17;100.00;95349.34;5038316;28;25223;-71
2021/12/07 06:56:58;;;;;;;7.50;2.13;;;;;;;1.18;100.00;95356.94;5031496;28;24456;-71
2021/12/07 06:59:24;;;;;;;4.78;1.70;;;;;;;1.30;100.00;95367.63;5032131;28;24428;-70
2021/12/07 07:01:51;;;;;;;6.55;1.98;;;;;;;1.29;100.00;95363.41;5032188;28;24420;-69
2021/12/07 07:04:18;;;;;;;6.20;1.90;;;;;;;1.19;100.00;95368.00;5032140;28;24486;-71
2021/12/07 07:06:46;;;;;;;6.10;2.00;;;;;;;1.15;100.00;95374.94;5028707;28;24428;-71
2021/12/07 07:09:13;;;;;;;6.28;1.83;;;;;;;1.20;100.00;95367.94;5031271;28;24972;-70
2021/12/07 07:11:41;;;;;;;6.20;2.13;;;;;;;1.13;100.00;95374.13;5031105;28;24431;-71
2021/12/07 07:14:08;;;;;;;7.68;2.40;;;;;;;1.15;100.00;95395.34;5032296;28;24771;-71
2021/12/07 07:16:35;;;;;;;7.10;2.33;;;;;;;1.19;100.00;95389.25;5030337;28;24763;-70
2021/12/07 07:19:01;;;;;;;8.43;2.38;;;;;;;1.15;100.00;95392.78;5030739;28;24537;-70
2021/12/07 07:21:28;;;;;;;7.25;2.08;;;;;;;1.12;100.00;95386.94;5030720;28;24833;-70
2021/12/07 07:23:56;;;;;;;9.15;2.13;;;;;;;1.14;100.00;95401.28;5031212;28;24443;-70
2021/12/07 07:26:22;;;;;;;7.85;2.35;;;;;;;1.12;100.00;95394.59;5031558;28;24435;-71
2021/12/07 07:28:49;;;;;;;5.78;1.90;;;;;;;1.14;100.00;95405.56;5031458;28;24477;-70
2021/12/07 07:31:16;;;;;;;6.40;2.13;;;;;;;1.11;100.00;95413.31;5030615;28;24415;-71
2021/12/07 07:33:42;;;;;;;7.30;2.05;;;;;;;1.15;100.00;95417.44;5027333;28;24994;-71
2021/12/07 07:36:09;;;;;;;5.47;1.98;;;;;;;1.08;100.00;95416.81;5031317;28;24439;-71
2021/12/07 07:38:35;;;;;;;5.30;1.77;;;;;;;1.10;100.00;95424.41;5030197;28;24459;-71
2021/12/07 07:41:03;;;;;;;6.50;1.85;;;;;;;1.16;100.00;95425.06;5028771;28;24439;-71
2021/12/07 07:43:30;;;;;;;7.80;2.70;;;;;;;1.09;100.00;95427.84;5029364;28;24451;-71
2021/12/07 07:45:57;;;;;;;8.55;2.50;;;;;;;1.19;100.00;95430.06;5030719;28;24435;-70
2021/12/07 07:48:24;;;;;;;6.80;1.70;;;;;;;1.11;100.00;95441.38;5031047;28;24435;-71
2021/12/07 07:50:51;;;;;;;7.95;2.00;;;;;;;1.09;100.00;95436.31;5028233;28;24443;-70
2021/12/07 07:53:18;;;;;;;8.90;2.50;;;;;;;1.15;100.00;95441.25;5031369;28;24459;-71
2021/12/07 07:55:45;;;;;;;6.85;2.30;;;;;;;1.13;100.00;95463.41;5030825;28;24435;-71
2021/12/07 07:58:13;;;;;;;5.60;2.10;;;;;;;1.18;100.00;95448.78;5030960;28;24480;-70
2021/12/07 08:00:42;;;;;;;6.57;2.03;;;;;;;1.17;100.00;95451.38;5030933;28;24894;-70
2021/12/07 08:03:08;;;;;;;8.48;1.65;;;;;;;1.28;100.00;95468.91;5031134;28;24440;-72
2021/12/07 08:05:35;;;;;;;7.00;2.03;;;;;;;1.23;100.00;95461.41;5031186;28;24423;-72
2021/12/07 08:08:01;;;;;;;7.63;2.00;;;;;;;1.25;100.00;95463.91;5030977;28;24938;-70
2021/12/07 08:10:29;;;;;;;8.02;2.60;;;;;;;1.29;100.00;95461.19;5031181;28;24470;-71
2021/12/07 08:12:56;;;;;;;8.23;2.20;;;;;;;1.29;100.00;95460.38;5030557;28;25004;-71
2021/12/07 08:15:25;;;;;;;9.38;2.45;;;;;;;1.34;100.00;95463.63;5030405;28;24858;-71
2021/12/07 08:17:51;;;;;;;5.97;2.17;;;;;;;1.41;100.00;95473.59;5030370;28;24455;-71
2021/12/07 08:20:18;;;;;;;5.57;2.28;;;;;;;1.38;100.00;95483.06;5030957;28;24998;-71
2021/12/07 08:22:45;;;;;;;7.25;2.47;;;;;;;1.46;100.00;95470.88;5030717;28;24426;-71
2021/12/07 08:25:11;;;;;;;14.15;6.55;;;;;;;1.52;100.00;95480.91;5030546;28;24474;-71
2021/12/07 08:27:38;;;;;;;16.95;7.25;;;;;;;1.50;100.00;95486.94;5030154;28;24408;-71
2021/12/07 08:30:06;;;;;;;9.35;3.03;;;;;;;1.50;100.00;95480.09;5030521;28;24465;-71
2021/12/07 08:32:33;;;;;;;9.20;4.13;;;;;;;1.58;100.00;95483.25;5030469;28;24435;-71
2021/12/07 08:35:00;;;;;;;16.70;5.60;;;;;;;1.71;100.00;95483.69;5030135;28;24441;-71
2021/12/07 08:37:26;;;;;;;11.00;2.67;;;;;;;1.80;100.00;95487.66;5045331;28;24860;-72
2021/12/07 08:39:53;;;;;;;6.53;2.30;;;;;;;1.97;100.00;95487.94;5050925;28;24624;-73
2021/12/07 08:42:20;;;;;;;10.27;4.75;;;;;;;2.14;100.00;95474.56;5038148;28;24434;-73
2021/12/07 08:44:47;;;;;;;8.15;4.38;;;;;;;2.18;100.00;95484.63;5029865;28;24466;-72
2021/12/07 08:47:15;;;;;;;5.20;2.30;;;;;;;2.04;100.00;95491.97;5029444;28;24777;-73
2021/12/07 08:49:43;;;;;;;6.97;2.45;;;;;;;2.07;100.00;95485.88;5030568;28;24423;-73
2021/12/07 08:52:09;;;;;;;7.38;2.75;;;;;;;2.00;100.00;95477.59;5030427;28;24420;-71
2021/12/07 08:59:38;;;;;;;8.73;2.75;;;;;;;1.97;100.00;95485.38;5030449;28;24416;-73
2021/12/07 09:00:09;;;;;;;4.65;2.28;;;;;;;2.01;100.00;95471.63;5031162;28;24423;-76
2021/12/07 09:02:36;;;;;;;5.30;2.00;;;;;;;2.11;100.00;95480.66;5031289;28;24423;-76
2021/12/07 09:05:05;;;;;;;6.88;2.80;;;;;;;2.30;100.00;95485.09;5031068;28;24431;-75
2021/12/07 09:07:31;;;;;;;8.55;2.65;;;;;;;2.11;100.00;95495.97;5031094;28;24427;-75
2021/12/07 09:09:58;;;;;;;7.32;2.05;;;;;;;1.94;100.00;95486.31;5030602;28;24503;-76
2021/12/07 09:12:24;;;;;;;6.95;1.98;;;;;;;1.99;100.00;95492.97;5030659;28;24497;-76
2021/12/07 09:14:53;;;;;;;4.35;1.92;;;;;;;1.91;100.00;95488.97;5030151;28;24455;-76
2021/12/07 09:17:19;;;;;;;5.83;2.17;;;;;;;2.13;100.00;95491.63;5030137;28;24424;-75
2021/12/07 09:19:46;;;;;;;12.77;2.50;;;;;;;2.38;100.00;95483.13;5030205;28;25011;-75
2021/12/07 09:22:14;;;;;;;6.78;2.10;;;;;;;2.51;100.00;95484.34;5029992;28;24499;-76
2021/12/07 09:24:41;;;;;;;5.38;1.85;;;;;;;2.61;100.00;95485.69;5030025;28;24597;-75
2021/12/07 09:27:07;;;;;;;6.47;2.55;;;;;;;2.69;99.74;95495.63;5030124;28;24416;-76
2021/12/07 09:29:34;;;;;;;11.63;2.85;;;;;;;2.80;100.00;95487.56;5030498;28;24419;-76
2021/12/07 09:32:00;;;;;;;5.38;1.77;;;;;;;3.04;100.00;95491.78;5030580;28;24428;-76
2021/12/07 09:34:27;;;;;;;6.95;1.92;;;;;;;2.95;98.83;95487.00;5030254;28;24432;-76
2021/12/07 09:36:53;;;;;;;6.78;1.85;;;;;;;3.11;99.50;95487.25;5039838;28;24434;-76
2021/12/07 09:39:21;;;;;;;4.57;2.10;;;;;;;3.11;100.00;95487.25;5053324;28;24458;-76
2021/12/07 09:41:48;;;;;;;7.88;1.95;;;;;;;3.14;97.29;95489.69;5045770;28;24436;-76
2021/12/07 09:44:14;;;;;;;9.65;2.95;;;;;;;3.21;96.96;95490.28;5033799;28;24435;-77
2021/12/07 09:46:41;;;;;;;15.27;5.23;;;;;;;3.13;97.19;95493.97;5033744;28;24548;-76
2021/12/07 09:49:09;;;;;;;12.43;4.22;;;;;;;3.08;95.70;95495.88;5033969;28;24423;-76
2021/12/07 09:51:37;;;;;;;16.50;4.40;;;;;;;3.15;97.42;95505.00;5033631;28;24427;-76
2021/12/07 09:54:05;;;;;;;7.22;1.98;;;;;;;2.97;96.01;95503.13;5034035;28;24415;-76
2021/12/07 09:56:33;;;;;;;6.43;3.25;;;;;;;3.21;95.94;95503.91;5033612;28;24422;-75
2021/12/07 09:59:01;;;;;;;7.32;2.13;;;;;;;3.30;93.64;95492.50;5033543;28;24502;-76
2021/12/07 10:01:30;;;;;;;6.03;2.00;;;;;;;3.15;94.95;95491.34;5033686;28;24443;-76
2021/12/07 10:03:57;;;;;;;5.07;2.07;;;;;;;3.21;95.72;95492.84;5033353;28;24424;-76
2021/12/07 10:06:24;;;;;;;4.65;1.60;;;;;;;3.06;91.43;95494.28;5033420;28;24838;-76
2021/12/07 10:08:50;;;;;;;7.33;2.03;;;;;;;2.91;94.28;95481.16;5034032;28;24423;-75
2021/12/07 10:11:17;;;;;;;6.43;1.65;;;;;;;3.04;92.00;95476.44;5033840;28;24423;-76
2021/12/07 10:13:50;;;;;;;6.13;1.73;;;;;;;3.30;93.93;95472.00;5033399;28;24438;-76
2021/12/07 10:16:19;;;;;;;7.28;1.88;;;;;;;3.14;87.45;95466.66;5033205;28;24432;-76
2021/12/07 10:18:45;;;;;;;5.57;1.90;;;;;;;3.13;88.76;95470.13;5033401;28;24860;-76
2021/12/07 10:21:16;;;;;;;7.68;1.83;;;;;;;3.13;90.46;95470.13;5033162;28;24770;-76
2021/12/07 10:23:44;;;;;;;6.88;1.63;;;;;;;3.04;90.27;95458.53;5033346;28;24436;-75
2021/12/07 10:26:13;;;;;;;7.20;2.10;;;;;;;2.87;89.21;95453.19;5033294;28;24514;-75
2021/12/07 10:28:41;;;;;;;8.95;1.95;;;;;;;3.09;87.07;95459.16;5033425;28;24427;-75
2021/12/07 10:31:20;;;;;;;5.47;1.67;;;;;;;2.79;88.54;95457.78;5032979;28;24527;-76
2021/12/07 10:33:49;;;;;;;6.43;2.05;;;;;;;2.83;90.49;95465.28;5029480;28;24443;-75
2021/12/07 10:36:18;;;;;;;6.50;2.00;;;;;;;2.81;91.92;95459.38;5032905;28;24432;-76
2021/12/07 10:38:50;;;;;;;4.97;1.65;;;;;;;3.06;90.77;95448.22;5032986;28;24857;-76
2021/12/07 10:41:21;;;;;;;7.50;1.70;;;;;;;3.27;91.37;95444.84;5033337;28;24938;-75
2021/12/07 10:43:53;;;;;;;6.28;2.08;;;;;;;3.56;89.47;95446.22;5032696;28;24442;-75
2021/12/07 10:46:32;;;;;;;4.47;1.60;;;;;;;3.83;87.28;95438.31;5032751;28;24568;-76
2021/12/07 10:49:26;;;;;;;5.18;1.90;;;;;;;3.73;88.89;95435.28;5032460;28;25015;-77
2021/12/07 10:52:14;;;;;;;10.70;2.25;;;;;;;3.58;85.79;95429.06;5032672;28;24415;-75
2021/12/07 10:54:44;;;;;;;6.47;1.90;;;;;;;3.44;86.48;95435.63;5032945;28;24435;-75
2021/12/07 10:57:15;;;;;;;4.85;1.83;;;;;;;3.50;87.54;95432.84;5032747;28;24785;-75
2021/12/07 10:59:51;;;;;;;4.35;1.55;;;;;;;3.63;87.79;95431.44;5032581;28;24494;-73
2021/12/07 11:02:19;;;;;;;5.37;1.60;;;;;;;3.37;88.82;95420.53;5032272;28;24467;-76
2021/12/07 11:04:46;;;;;;;5.20;1.50;;;;;;;3.31;86.82;95420.78;5032816;28;24420;-76
2021/12/07 11:07:17;;;;;;;4.43;1.70;;;;;;;3.29;85.42;95425.13;5032284;28;24420;-75
2021/12/07 11:09:50;;;;;;;5.85;1.90;;;;;;;3.41;85.40;95423.78;5032679;28;24426;-75
2021/12/07 11:12:18;;;;;;;9.50;1.77;;;;;;;3.30;85.06;95423.38;5032365;28;24439;-76
2021/12/07 11:14:49;;;;;;;5.25;1.80;;;;;;;3.12;87.28;95424.97;5031722;28;24470;-76
2021/12/07 11:17:20;;;;;;;4.93;1.52;;;;;;;2.98;87.38;95427.22;5032425;28;24423;-76
2021/12/07 11:19:47;;;;;;;5.63;1.80;;;;;;;2.90;87.30;95428.34;5032411;28;24805;-76
2021/12/07 11:22:15;;;;;;;4.28;1.48;;;;;;;3.08;87.23;95420.88;5032410;28;25003;-76
2021/12/07 11:24:44;;;;;;;4.10;2.10;;;;;;;3.17;87.10;95414.53;5032194;28;24424;-76
2021/12/07 11:30:00;;;;;;;10.65;2.47;;;;;;;3.18;88.10;95406.78;5032032;28;24419;-75
2021/12/07 11:32:28;;;;;;;6.97;2.00;;;;;;;3.27;86.83;95409.00;5032398;28;25043;-77
2021/12/07 11:34:56;;;;;;;7.68;2.22;;;;;;;3.35;86.32;95403.56;5031999;28;24424;-76
2021/12/07 11:37:23;;;;;;;11.27;4.50;;;;;;;3.34;87.48;95404.47;5031893;28;24426;-77
2021/12/07 11:39:52;;;;;;;10.02;4.05;;;;;;;3.39;86.22;95411.06;5033742;28;24522;-77
2021/12/07 11:42:22;;;;;;;6.30;2.20;;;;;;;3.47;88.50;95397.94;5032449;28;24833;-77
2021/12/07 11:44:51;;;;;;;15.18;3.13;;;;;;;3.51;85.95;95380.72;5046491;28;24438;-77
2021/12/07 11:47:25;;;;;;;11.07;3.15;;;;;;;3.61;87.34;95370.03;5052691;28;24426;-78
2021/12/07 11:49:53;;;;;;;8.25;2.40;;;;;;;3.52;86.47;95378.13;5053295;28;24442;-76
2021/12/07 11:52:20;;;;;;;5.47;2.83;;;;;;;3.54;88.04;95355.84;5051415;28;24415;-76
2021/12/07 11:54:46;;;;;;;6.63;2.40;;;;;;;3.50;89.50;95359.41;5051628;28;24423;-77
2021/12/07 11:57:16;;;;;;;11.83;2.43;;;;;;;3.54;88.77;95353.28;5051486;28;24422;-75
2021/12/07 11:59:44;;;;;;;6.10;2.17;;;;;;;3.61;87.82;95351.28;5051508;28;24817;-76
2021/12/07 12:02:11;;;;;;;6.37;2.40;;;;;;;3.62;87.49;95356.34;5050504;28;24415;-76
2021/12/07 12:04:39;;;;;;;4.63;1.50;;;;;;;3.51;88.52;95350.00;5051419;28;24418;-76
2021/12/07 12:07:08;;;;;;;5.13;2.05;;;;;;;3.36;89.52;95349.75;5049981;28;24493;-76
2021/12/07 12:09:35;;;;;;;5.30;1.75;;;;;;;3.37;88.01;95343.75;5032366;28;24439;-77
2021/12/07 12:12:13;;;;;;;3.75;1.50;;;;;;;3.46;87.83;95342.53;5031633;28;24946;-77
2021/12/07 12:14:47;;;;;;;4.17;1.40;;;;;;;3.57;88.62;95347.19;5031509;28;24436;-77
2021/12/07 12:17:19;;;;;;;3.58;1.42;;;;;;;3.67;85.10;95339.94;5031363;28;24428;-75
2021/12/07 12:20:03;;;;;;;6.18;2.10;;;;;;;3.55;86.49;95331.88;5031670;28;24475;-75
2021/12/07 12:22:37;;;;;;;5.82;1.80;;;;;;;3.66;86.08;95326.31;5031041;28;24965;-75
2021/12/07 12:25:07;;;;;;;3.00;1.20;;;;;;;3.62;84.11;95323.06;5030837;28;24419;-76
2021/12/07 12:27:36;;;;;;;7.15;1.77;;;;;;;3.46;88.17;95319.47;5031020;28;24428;-76
2021/12/07 12:30:19;;;;;;;6.15;1.85;;;;;;;3.50;88.31;95322.75;5030809;28;24782;-76
2021/12/07 12:32:49;;;;;;;6.32;1.73;;;;;;;3.52;87.41;95316.69;5031028;28;24416;-75
2021/12/07 12:35:15;;;;;;;4.43;1.80;;;;;;;3.56;85.15;95307.97;5030703;28;24432;-77
2021/12/07 12:37:48;;;;;;;3.97;1.60;;;;;;;3.53;87.25;95312.38;5030887;28;24640;-77
2021/12/07 12:40:23;;;;;;;4.07;1.55;;;;;;;3.73;87.70;95307.22;5030602;28;24436;-76
2021/12/07 12:42:51;;;;;;;7.72;2.10;;;;;;;3.71;87.72;95308.19;5031284;28;24519;-77
2021/12/07 12:45:22;;;;;;;7.07;2.22;;;;;;;3.67;86.17;95306.66;5031632;28;24883;-77
2021/12/07 12:47:56;;;;;;;5.05;2.42;;;;;;;3.64;86.95;95315.31;5031444;28;25070;-76
2021/12/07 12:50:27;;;;;;;6.72;1.50;;;;;;;3.54;83.76;95314.03;5030925;28;24511;-76
2021/12/07 12:52:57;;;;;;;6.82;2.03;;;;;;;3.39;81.65;95318.06;5030339;28;24431;-76